首页
METAR-TAF:

METAR-TAF

机场 :

劍橋, 英格兰

纬度: 52-12N, 经度: 000-11E, 海拔: 15米

当前天气观测

该预报发布于4小时和10分钟前的16:50 UTC
风速17节,风向北转西北
温度 11°C
湿度 82%
气压 1011 hPa
能见度10公里或以上
多云层高于2000英尺
附近有阵雨

METAR: EGSC 261650Z 34017KT 9999 VCSH BKN020 11/08 Q1011

时间: 22:00 (21:00 UTC)

预报

该预报发布于7小时和4分钟前的13:56 UTC
预报有效从26日的 15点(UTC)到 26日的 17点(UTC)
风速17节,风向西北
能见度10公里或以上
多云层高于2000英尺
短暂存在
从 26日的 15点(UTC)到 26日的 17点(UTC)
风速20节,风向北转西北,有时为30节阵风
几率 30% :
短暂存在
从 26日的 15点(UTC)到 26日的 17点(UTC)
能見度: 8000
多云层高于1200英尺
小雨

TAF: EGSC 261356Z 2615/2617 32017KT 9999 BKN020 TEMPO 2615/2617 33020G30KT PROB30 TEMPO 2615/2617 8000 -RA BKN012

超过4000个机场的气象观测和天气预报(METAR&TAF报告)。

可查询的气象台以黄色和红色小点在地图上表示。

将鼠标移到小点上方,可查看气象台名称。

然后点击查看天气观测和预报。

如需切换地图:点击带黑十字的绿色按钮放大地图;点击带横线的绿色按钮缩小地图;或者点击绿色箭头查看邻近地区的地图。


METAR-TAF: